Time;durP1;ratioP1;P1;durP2;ratioP2;P2;SDS_P1;SDS_P2;PMS_P1;PMS_P2;Temp;Humidity;BMP_temperature;BMP_pressure;BME280_temperature;BME280_humidity;BME280_pressure;Samples;Min_cycle;Max_cycle;Signal;HPM_P1;HPM_P2
2022/08/16 00:01:23;;;;;;;5.03;3.45;;;25.40;61.40;;;;;;5031169;28;20153;-72
2022/08/16 00:03:50;;;;;;;3.78;3.20;;;24.60;62.60;;;;;;5031361;28;20132;-72
2022/08/16 00:06:17;;;;;;;3.90;3.50;;;25.30;61.40;;;;;;5034667;28;20055;-73
2022/08/16 00:08:43;;;;;;;4.07;3.63;;;25.40;61.40;;;;;;5034738;28;20582;-72
2022/08/16 00:11:11;;;;;;;4.80;3.78;;;25.40;63.00;;;;;;5034780;28;20132;-72
2022/08/16 00:13:43;;;;;;;4.07;3.67;;;25.30;61.50;;;;;;5033499;28;20050;-75
2022/08/16 00:16:10;;;;;;;4.65;3.72;;;25.30;61.40;;;;;;5034828;28;20049;-75
2022/08/16 00:18:37;;;;;;;4.05;3.65;;;25.80;63.40;;;;;;5033575;28;20061;-75
2022/08/16 00:21:03;;;;;;;4.18;3.65;;;25.30;61.50;;;;;;5034508;28;20099;-74
2022/08/16 00:23:30;;;;;;;3.53;3.22;;;25.30;61.50;;;;;;5033395;28;20148;-75
2022/08/16 00:25:57;;;;;;;3.78;3.40;;;25.30;61.40;;;;;;5033891;28;20053;-75
2022/08/16 00:28:24;;;;;;;5.72;3.85;;;25.30;61.40;;;;;;5033353;28;20486;-75
2022/08/16 00:30:52;;;;;;;4.88;3.70;;;25.20;61.40;;;;;;5033362;28;20081;-74
2022/08/16 00:33:18;;;;;;;4.53;3.90;;;25.30;61.50;;;;;;5033382;28;20405;-74
2022/08/16 00:35:45;;;;;;;4.80;4.30;;;25.30;61.50;;;;;;5033327;28;20063;-74
2022/08/16 00:38:12;;;;;;;4.10;3.65;;;25.20;61.50;;;;;;5034083;28;20056;-74
2022/08/16 00:40:40;;;;;;;3.95;3.55;;;25.20;61.50;;;;;;5016774;28;20516;-74
2022/08/16 00:43:09;;;;;;;5.63;3.97;;;25.20;62.00;;;;;;5033317;28;20049;-74
2022/08/16 00:45:38;;;;;;;5.75;3.88;;;25.20;61.50;;;;;;5033133;28;20132;-74
2022/08/16 00:48:08;;;;;;;4.20;3.58;;;25.20;61.60;;;;;;5017056;28;20050;-74
2022/08/16 00:50:37;;;;;;;4.72;3.95;;;25.20;61.50;;;;;;5033115;28;20136;-74
2022/08/16 00:53:04;;;;;;;4.75;4.25;;;25.20;61.60;;;;;;5016549;28;20080;-74
2022/08/16 00:55:31;;;;;;;5.35;4.00;;;25.20;61.60;;;;;;5032837;28;20046;-74
2022/08/16 00:57:57;;;;;;;4.13;3.72;;;25.20;61.60;;;;;;5033140;28;20140;-74
2022/08/16 01:00:27;;;;;;;5.13;3.60;;;25.20;61.60;;;;;;5032806;28;20132;-74
2022/08/16 01:02:55;;;;;;;5.05;4.22;;;25.20;63.30;;;;;;5032962;28;20491;-74
2022/08/16 01:05:24;;;;;;;4.55;4.15;;;25.20;61.60;;;;;;5032819;28;20068;-74
2022/08/16 01:07:51;;;;;;;5.20;4.25;;;25.20;61.70;;;;;;5033605;28;20082;-74
2022/08/16 01:10:19;;;;;;;7.38;4.00;;;25.20;61.70;;;;;;5032598;28;20061;-74
2022/08/16 01:12:46;;;;;;;4.43;4.03;;;25.20;61.60;;;;;;5033595;28;20060;-74
2022/08/16 01:15:13;;;;;;;3.55;3.25;;;25.10;61.80;;;;;;5032501;28;20059;-74
2022/08/16 01:17:40;;;;;;;4.53;4.05;;;25.20;61.60;;;;;;5031432;28;20056;-74
2022/08/16 01:20:08;;;;;;;4.30;3.90;;;25.10;61.60;;;;;;5032499;28;20143;-74
2022/08/16 01:22:38;;;;;;;4.18;3.53;;;25.10;61.60;;;;;;5031859;28;20049;-74
2022/08/16 01:25:07;;;;;;;5.57;3.33;;;25.10;61.60;;;;;;5032816;28;20069;-74
2022/08/16 01:27:36;;;;;;;4.40;4.00;;;25.10;61.50;;;;;;5033110;28;20041;-74
2022/08/16 01:30:06;;;;;;;4.18;3.53;;;25.10;61.60;;;;;;5032259;28;20092;-74
2022/08/16 01:32:35;;;;;;;4.50;4.00;;;25.10;61.60;;;;;;5032103;28;20057;-74
2022/08/16 01:35:04;;;;;;;4.93;3.90;;;25.10;61.60;;;;;;5032202;28;20049;-74
2022/08/16 01:37:36;;;;;;;5.88;4.15;;;25.10;63.40;;;;;;5032053;28;20055;-74
2022/08/16 01:40:06;;;;;;;6.82;4.20;;;25.00;61.60;;;;;;5032279;28;20054;-74
2022/08/16 01:42:32;;;;;;;4.50;4.00;;;25.10;61.70;;;;;;5031916;28;20049;-74
2022/08/16 01:44:59;;;;;;;4.40;4.00;;;25.10;61.70;;;;;;5032244;28;20057;-74
2022/08/16 01:47:26;;;;;;;4.60;3.90;;;25.10;61.70;;;;;;5032005;28;20060;-73
2022/08/16 01:49:53;;;;;;;4.20;3.80;;;25.10;63.40;;;;;;5032546;28;20045;-73
2022/08/16 01:52:19;;;;;;;4.15;3.70;;;24.90;61.50;;;;;;5032596;28;20049;-74
2022/08/16 01:54:46;;;;;;;4.22;3.80;;;25.00;61.60;;;;;;5032971;28;20088;-74
2022/08/16 01:57:14;;;;;;;4.40;4.00;;;25.00;61.60;;;;;;5031838;28;20057;-74
2022/08/16 01:59:42;;;;;;;4.22;3.80;;;24.90;61.60;;;;;;5032897;28;20064;-74
2022/08/16 02:02:09;;;;;;;5.93;3.80;;;25.00;61.60;;;;;;5031604;28;20053;-74
2022/08/16 02:04:36;;;;;;;4.30;3.90;;;25.00;61.60;;;;;;5031468;28;20089;-74
2022/08/16 02:07:07;;;;;;;4.18;3.70;;;25.00;61.60;;;;;;5031817;28;20049;-74
2022/08/16 02:09:36;;;;;;;4.85;4.00;;;25.00;61.60;;;;;;5031520;28;20513;-73
2022/08/16 02:12:03;;;;;;;5.00;4.00;;;25.00;61.70;;;;;;5031192;28;20133;-74
2022/08/16 02:14:32;;;;;;;5.93;4.22;;;25.00;61.70;;;;;;5031547;28;20060;-73
2022/08/16 02:17:04;;;;;;;5.45;4.13;;;25.00;61.70;;;;;;5031820;28;20081;-73
2022/08/16 02:19:31;;;;;;;5.38;4.68;;;24.90;61.60;;;;;;5031152;28;20139;-74
2022/08/16 02:21:58;;;;;;;5.38;4.40;;;24.90;61.70;;;;;;5031298;28;20061;-74
2022/08/16 02:24:25;;;;;;;5.88;4.10;;;24.90;61.70;;;;;;5031065;28;20434;-73
2022/08/16 02:26:52;;;;;;;4.85;4.20;;;24.90;61.70;;;;;;5031426;28;20091;-72
2022/08/16 02:29:19;;;;;;;4.82;4.32;;;24.90;61.70;;;;;;5031329;28;20537;-73
2022/08/16 02:31:48;;;;;;;5.88;4.85;;;24.90;61.70;;;;;;5030963;28;20057;-72
2022/08/16 02:34:15;;;;;;;5.07;4.05;;;24.90;61.70;;;;;;5030566;28;20570;-73
2022/08/16 02:36:42;;;;;;;5.25;4.75;;;24.90;62.10;;;;;;5031350;28;20132;-73
2022/08/16 02:39:09;;;;;;;5.25;4.75;;;24.90;61.80;;;;;;5031040;28;20068;-72
2022/08/16 02:41:36;;;;;;;7.32;4.93;;;24.90;61.80;;;;;;5030947;28;20059;-73
2022/08/16 02:44:04;;;;;;;4.63;4.13;;;24.90;61.80;;;;;;5031105;28;20049;-72
2022/08/16 02:46:31;;;;;;;4.90;4.40;;;24.90;61.80;;;;;;5031419;28;20206;-72
2022/08/16 02:49:00;;;;;;;7.00;4.35;;;24.90;61.80;;;;;;5031888;28;20053;-72
2022/08/16 02:51:27;;;;;;;4.75;4.25;;;25.00;63.20;;;;;;5031004;28;20406;-72
2022/08/16 02:53:53;;;;;;;4.75;4.35;;;24.90;61.80;;;;;;5031882;28;20041;-73
2022/08/16 02:56:21;;;;;;;5.50;4.90;;;24.80;61.70;;;;;;5030719;28;20137;-72
2022/08/16 02:58:49;;;;;;;5.97;4.78;;;24.90;61.80;;;;;;5030842;28;20053;-72
2022/08/16 03:01:20;;;;;;;6.00;5.00;;;24.90;61.80;;;;;;5030510;28;20132;-73
2022/08/16 03:03:47;;;;;;;4.93;4.35;;;24.80;61.70;;;;;;5031048;28;20068;-72
2022/08/16 03:06:18;;;;;;;5.85;5.07;;;23.50;63.40;;;;;;5031124;28;20057;-72
2022/08/16 03:08:45;;;;;;;6.85;5.70;;;24.80;61.70;;;;;;5030860;28;20060;-72
2022/08/16 03:11:12;;;;;;;5.70;4.88;;;24.80;61.80;;;;;;5030643;28;20049;-74
2022/08/16 03:13:39;;;;;;;6.15;5.30;;;24.80;62.00;;;;;;5029692;28;20053;-72
2022/08/16 03:16:06;;;;;;;5.38;4.85;;;24.90;63.40;;;;;;5030423;28;20137;-72
2022/08/16 03:18:33;;;;;;;5.28;4.78;;;24.80;61.80;;;;;;5030963;28;20132;-73
2022/08/16 03:21:00;;;;;;;5.60;4.53;;;24.80;61.80;;;;;;5030347;28;20137;-72
2022/08/16 03:23:28;;;;;;;6.82;4.97;;;24.60;61.60;;;;;;5014050;28;20520;-72
2022/08/16 03:25:55;;;;;;;5.55;5.00;;;24.70;61.70;;;;;;5030393;28;20059;-72
2022/08/16 03:28:21;;;;;;;6.63;5.22;;;24.80;61.70;;;;;;5030671;28;20054;-72
2022/08/16 03:30:48;;;;;;;5.75;5.22;;;24.80;61.70;;;;;;5030576;28;20426;-72
2022/08/16 03:33:15;;;;;;;5.97;5.30;;;24.80;61.70;;;;;;5030284;28;20060;-73
2022/08/16 03:35:42;;;;;;;5.55;5.03;;;24.70;61.70;;;;;;5030204;28;20053;-72
2022/08/16 03:38:10;;;;;;;5.75;5.25;;;24.80;61.70;;;;;;5030592;28;20494;-73
2022/08/16 03:40:38;;;;;;;5.97;5.05;;;24.70;61.60;;;;;;5033051;28;20060;-73
2022/08/16 03:43:06;;;;;;;6.35;5.32;;;24.70;61.60;;;;;;5033978;28;20503;-74
2022/08/16 03:45:33;;;;;;;7.15;5.45;;;24.70;61.60;;;;;;5035449;28;20045;-74
2022/08/16 03:48:01;;;;;;;5.30;4.78;;;24.70;61.60;;;;;;5034324;28;20151;-74
2022/08/16 03:50:28;;;;;;;5.97;5.38;;;24.70;61.60;;;;;;5034315;28;20061;-74
2022/08/16 03:52:54;;;;;;;6.13;5.35;;;24.70;61.60;;;;;;5034112;28;20497;-74
2022/08/16 03:55:21;;;;;;;8.77;5.18;;;24.70;61.70;;;;;;5034111;28;20053;-74
2022/08/16 03:57:52;;;;;;;5.13;4.63;;;24.70;61.60;;;;;;5034700;28;20045;-74
2022/08/16 04:00:20;;;;;;;5.13;4.65;;;24.70;61.60;;;;;;5034089;28;20061;-74
2022/08/16 04:02:47;;;;;;;5.90;5.40;;;24.60;63.10;;;;;;5034041;28;20487;-74
2022/08/16 04:05:14;;;;;;;6.05;5.40;;;24.60;61.60;;;;;;5033854;28;20049;-74
2022/08/16 04:07:41;;;;;;;6.78;5.82;;;24.70;61.60;;;;;;5034136;28;20132;-74
2022/08/16 04:10:09;;;;;;;7.80;5.88;;;24.70;61.60;;;;;;5033426;28;20053;-74
2022/08/16 04:12:35;;;;;;;6.65;5.40;;;24.70;61.60;;;;;;5033663;28;20089;-72
2022/08/16 04:15:05;;;;;;;6.15;5.55;;;24.70;61.60;;;;;;5033746;28;20422;-72
2022/08/16 04:17:31;;;;;;;7.72;5.43;;;23.90;63.40;;;;;;5033927;28;20140;-72
2022/08/16 04:19:58;;;;;;;6.03;5.43;;;24.60;61.50;;;;;;5033414;28;20502;-72
2022/08/16 04:22:25;;;;;;;6.70;5.43;;;24.70;61.80;;;;;;5034712;28;20132;-72
2022/08/16 04:24:52;;;;;;;6.57;5.70;;;24.60;61.50;;;;;;5033723;28;20084;-72
2022/08/16 04:27:19;;;;;;;8.02;5.63;;;24.70;61.60;;;;;;5034553;28;20475;-73
2022/08/16 04:29:45;;;;;;;5.50;5.00;;;24.70;63.40;;;;;;5033692;28;20140;-72
2022/08/16 04:32:14;;;;;;;5.70;4.82;;;24.60;61.50;;;;;;5033157;28;20391;-72
2022/08/16 04:34:40;;;;;;;6.85;5.70;;;24.60;61.50;;;;;;5033270;28;20132;-73
2022/08/16 04:37:07;;;;;;;6.57;5.90;;;24.60;61.50;;;;;;5033289;28;20053;-72
2022/08/16 04:39:34;;;;;;;6.78;5.95;;;24.70;63.80;;;;;;5034524;28;20554;-72
2022/08/16 04:42:01;;;;;;;6.30;5.70;;;24.60;61.50;;;;;;5032644;28;20055;-71
2022/08/16 04:44:28;;;;;;;6.28;5.68;;;24.60;61.40;;;;;;5033396;28;20057;-72
2022/08/16 04:46:55;;;;;;;5.13;4.50;;;24.60;61.40;;;;;;5030764;28;20055;-74
2022/08/16 04:49:23;;;;;;;5.20;3.95;;;24.60;61.30;;;;;;5033261;28;20053;-72
2022/08/16 04:51:50;;;;;;;4.13;3.72;;;24.60;61.30;;;;;;5031390;28;20057;-72
2022/08/16 04:54:17;;;;;;;4.40;4.00;;;24.80;61.40;;;;;;5032461;28;20392;-74
2022/08/16 04:56:44;;;;;;;4.57;4.18;;;24.10;62.50;;;;;;5033145;28;20057;-72
2022/08/16 04:59:11;;;;;;;4.82;4.32;;;24.10;63.30;;;;;;5033887;28;20088;-72
2022/08/16 05:01:37;;;;;;;4.75;4.30;;;24.60;61.30;;;;;;5032857;28;20053;-73
2022/08/16 05:04:04;;;;;;;6.20;3.95;;;24.60;61.30;;;;;;5032476;28;20045;-72
2022/08/16 05:06:32;;;;;;;4.15;3.75;;;24.60;61.30;;;;;;5033915;28;20049;-74
2022/08/16 05:08:59;;;;;;;4.50;4.03;;;24.60;61.20;;;;;;5033523;28;20128;-74
2022/08/16 05:11:27;;;;;;;4.10;3.78;;;24.60;61.20;;;;;;5032617;28;20140;-76
2022/08/16 05:13:54;;;;;;;4.25;3.85;;;24.60;61.20;;;;;;5032309;28;20046;-76
2022/08/16 05:16:22;;;;;;;4.00;3.60;;;24.60;62.60;;;;;;5032504;28;20065;-75
2022/08/16 05:18:50;;;;;;;4.47;4.07;;;24.60;61.20;;;;;;5032365;28;20064;-76
2022/08/16 05:21:16;;;;;;;3.88;3.58;;;24.60;61.20;;;;;;5031695;28;20064;-75
2022/08/16 05:23:44;;;;;;;3.92;3.53;;;24.60;61.20;;;;;;5032059;28;20124;-76
2022/08/16 05:26:11;;;;;;;4.07;3.67;;;24.50;62.60;;;;;;5032287;28;20581;-75
2022/08/16 05:28:38;;;;;;;4.35;3.95;;;24.60;61.20;;;;;;5032415;28;20133;-73
2022/08/16 05:31:05;;;;;;;4.28;3.67;;;24.60;61.10;;;;;;5032201;28;20575;-72
2022/08/16 05:33:32;;;;;;;4.30;3.90;;;24.50;62.80;;;;;;5031996;28;20049;-72
2022/08/16 05:35:58;;;;;;;5.20;3.78;;;24.50;61.00;;;;;;5032198;28;20387;-72
2022/08/16 05:38:27;;;;;;;4.35;3.95;;;24.60;61.10;;;;;;5031970;28;20057;-72
2022/08/16 05:40:55;;;;;;;4.60;3.67;;;24.60;61.10;;;;;;5031804;28;20057;-72
2022/08/16 05:43:22;;;;;;;4.35;3.92;;;24.50;62.70;;;;;;5031892;28;20136;-71
2022/08/16 05:45:48;;;;;;;4.75;3.90;;;24.60;61.60;;;;;;5032712;28;20120;-73
2022/08/16 05:48:15;;;;;;;4.53;4.13;;;24.60;61.00;;;;;;5031174;28;20478;-72
2022/08/16 05:50:42;;;;;;;4.40;4.00;;;24.40;62.20;;;;;;5031029;28;20128;-75
2022/08/16 05:53:09;;;;;;;4.35;3.95;;;24.50;61.00;;;;;;5031023;28;20056;-74
2022/08/16 05:55:35;;;;;;;4.78;4.07;;;24.60;61.00;;;;;;5031116;28;20045;-75
2022/08/16 05:58:03;;;;;;;4.47;4.07;;;24.50;63.00;;;;;;5030987;28;20132;-75
2022/08/16 06:00:31;;;;;;;4.63;4.20;;;23.90;62.30;;;;;;5027845;28;20057;-72
2022/08/16 06:02:58;;;;;;;4.57;4.07;;;24.60;61.00;;;;;;5031042;28;20037;-72
2022/08/16 06:05:24;;;;;;;4.80;3.70;;;24.70;62.90;;;;;;5032347;28;20041;-72
2022/08/16 06:07:51;;;;;;;3.95;3.55;;;24.60;61.00;;;;;;5032147;28;20132;-72
2022/08/16 06:10:18;;;;;;;4.75;3.88;;;24.60;60.90;;;;;;5032244;28;20073;-75
2022/08/16 06:12:45;;;;;;;4.57;3.95;;;24.70;61.00;;;;;;5031529;28;20056;-75
2022/08/16 06:15:14;;;;;;;3.85;3.40;;;24.50;60.80;;;;;;5031483;28;20056;-75
2022/08/16 06:17:41;;;;;;;3.42;3.13;;;24.60;60.80;;;;;;5031361;28;20561;-72
2022/08/16 06:20:09;;;;;;;3.67;3.33;;;24.60;60.80;;;;;;5030996;28;20458;-72
2022/08/16 06:22:37;;;;;;;3.33;3.03;;;24.60;60.80;;;;;;5029523;28;20065;-71
2022/08/16 06:25:04;;;;;;;3.50;3.20;;;24.60;60.70;;;;;;5031424;28;20053;-71
2022/08/16 06:27:31;;;;;;;3.53;3.15;;;24.60;60.60;;;;;;5031599;28;20053;-70
2022/08/16 06:29:58;;;;;;;4.10;3.50;;;24.60;60.60;;;;;;5031547;28;20743;-71
2022/08/16 06:32:26;;;;;;;3.83;3.30;;;25.30;60.90;;;;;;5031325;28;20049;-70
2022/08/16 06:34:52;;;;;;;4.10;3.70;;;24.70;60.60;;;;;;5032348;28;20076;-70
2022/08/16 06:37:19;;;;;;;4.32;3.92;;;24.70;60.50;;;;;;5031207;28;20160;-73
2022/08/16 06:39:46;;;;;;;4.10;3.67;;;24.90;60.50;;;;;;5030925;28;20441;-72
2022/08/16 06:42:12;;;;;;;4.13;3.72;;;24.90;60.50;;;;;;5029981;28;20140;-73
2022/08/16 06:44:39;;;;;;;4.10;3.70;;;24.90;60.40;;;;;;5015401;28;20045;-73
2022/08/16 06:47:08;;;;;;;3.45;3.15;;;25.00;60.30;;;;;;5031279;28;20042;-72
2022/08/16 06:49:36;;;;;;;4.43;3.80;;;25.00;60.20;;;;;;5030372;28;20061;-73
2022/08/16 06:52:03;;;;;;;3.83;3.53;;;25.20;60.20;;;;;;5031640;28;20132;-73
2022/08/16 06:54:29;;;;;;;4.32;3.92;;;25.20;60.00;;;;;;5031951;28;20049;-73
2022/08/16 06:56:56;;;;;;;3.78;3.45;;;25.40;60.00;;;;;;5032029;28;20055;-73
2022/08/16 06:59:23;;;;;;;6.25;3.92;;;25.40;59.90;;;;;;5031870;28;20049;-73
2022/08/16 07:01:50;;;;;;;4.40;4.00;;;25.60;59.80;;;;;;5030723;28;20091;-70
2022/08/16 07:04:17;;;;;;;4.25;3.85;;;25.60;59.60;;;;;;5030521;28;20054;-70
2022/08/16 07:06:45;;;;;;;6.47;4.00;;;25.70;59.50;;;;;;5031064;28;20136;-70
2022/08/16 07:09:12;;;;;;;4.45;4.05;;;25.70;59.40;;;;;;5011080;28;20061;-70
2022/08/16 07:11:39;;;;;;;4.35;3.95;;;26.40;61.90;;;;;;5014330;28;20053;-73
2022/08/16 07:14:06;;;;;;;4.40;4.00;;;25.90;59.20;;;;;;5013959;28;20060;-70
2022/08/16 07:16:32;;;;;;;4.20;3.80;;;25.60;61.10;;;;;;5034401;28;20045;-71
2022/08/16 07:18:59;;;;;;;4.78;3.95;;;26.00;59.10;;;;;;5034396;28;20052;-71
2022/08/16 07:21:27;;;;;;;5.00;4.07;;;26.10;59.00;;;;;;5034464;28;20054;-71
2022/08/16 07:23:55;;;;;;;4.45;4.03;;;26.10;58.90;;;;;;5035660;28;20053;-71
2022/08/16 07:26:23;;;;;;;4.70;4.25;;;26.20;58.80;;;;;;5034661;28;20733;-71
2022/08/16 07:28:50;;;;;;;5.07;3.90;;;26.20;58.70;;;;;;5034552;28;20383;-72
2022/08/16 07:31:16;;;;;;;4.55;4.15;;;26.20;58.70;;;;;;5034290;28;20139;-72
2022/08/16 07:33:44;;;;;;;4.57;4.07;;;27.50;61.60;;;;;;5034116;28;20053;-72
2022/08/16 07:36:11;;;;;;;4.93;3.88;;;26.30;60.00;;;;;;5035406;28;20076;-71
2022/08/16 07:38:38;;;;;;;4.38;3.97;;;26.30;58.50;;;;;;5034479;28;20057;-71
2022/08/16 07:41:06;;;;;;;4.95;3.90;;;26.30;58.40;;;;;;5034241;28;20084;-72
2022/08/16 07:43:33;;;;;;;5.70;3.78;;;26.40;58.40;;;;;;5033958;28;20049;-72
2022/08/16 07:46:00;;;;;;;4.20;3.80;;;26.40;58.40;;;;;;5034005;28;20051;-75
2022/08/16 07:48:26;;;;;;;5.72;4.30;;;26.40;58.30;;;;;;5033662;28;20389;-73
2022/08/16 07:50:54;;;;;;;4.22;3.67;;;26.50;58.30;;;;;;5033574;28;20053;-73
2022/08/16 07:53:20;;;;;;;5.32;3.75;;;26.50;58.20;;;;;;5033254;28;20061;-73
2022/08/16 07:55:47;;;;;;;4.53;4.13;;;26.50;58.30;;;;;;5033762;28;20057;-73
2022/08/16 07:58:16;;;;;;;5.93;4.10;;;26.50;58.20;;;;;;5032772;28;20053;-71
2022/08/16 08:00:42;;;;;;;6.00;4.50;;;26.50;58.20;;;;;;5033589;28;20087;-74
2022/08/16 08:03:10;;;;;;;5.88;4.50;;;26.50;58.10;;;;;;5034927;28;20434;-74
2022/08/16 08:05:39;;;;;;;5.82;4.43;;;26.50;58.10;;;;;;5033785;28;20053;-73
2022/08/16 08:08:06;;;;;;;5.10;4.60;;;26.50;58.10;;;;;;5033621;28;20053;-74
2022/08/16 08:10:33;;;;;;;5.35;4.60;;;26.60;58.20;;;;;;5033429;28;20581;-73
2022/08/16 08:13:00;;;;;;;4.93;4.20;;;26.60;58.20;;;;;;5033388;28;20057;-74
2022/08/16 08:15:28;;;;;;;4.88;4.38;;;26.60;58.20;;;;;;5033540;28;20153;-73
2022/08/16 08:17:55;;;;;;;5.38;4.75;;;26.60;58.20;;;;;;5034674;28;20047;-75
2022/08/16 08:20:26;;;;;;;6.60;4.80;;;26.60;58.20;;;;;;5033182;28;20481;-75
2022/08/16 08:22:53;;;;;;;6.00;4.43;;;26.70;58.30;;;;;;5034413;28;20042;-75
2022/08/16 08:25:20;;;;;;;13.35;5.50;;;26.70;60.30;;;;;;5034110;28;20065;-74
2022/08/16 08:27:47;;;;;;;6.72;5.28;;;26.70;58.40;;;;;;5032791;28;20084;-74
2022/08/16 08:30:14;;;;;;;6.40;5.00;;;26.70;58.40;;;;;;5032795;28;20112;-74
2022/08/16 08:32:42;;;;;;;7.32;5.75;;;26.70;58.30;;;;;;5033639;28;20064;-74
2022/08/16 08:35:10;;;;;;;6.38;5.05;;;26.70;58.40;;;;;;5034349;28;20061;-72
2022/08/16 08:37:37;;;;;;;7.18;5.85;;;26.70;58.30;;;;;;5033319;28;20071;-72
2022/08/16 08:40:05;;;;;;;5.97;5.38;;;26.70;58.30;;;;;;5032357;28;20402;-71
2022/08/16 08:42:31;;;;;;;6.18;5.35;;;26.80;58.60;;;;;;5048688;28;20067;-72
2022/08/16 08:44:58;;;;;;;7.50;5.93;;;26.70;58.30;;;;;;5032655;28;20057;-72
2022/08/16 08:47:26;;;;;;;7.28;5.93;;;26.60;60.80;;;;;;5032614;28;20068;-71
2022/08/16 08:49:55;;;;;;;8.35;6.40;;;26.70;58.50;;;;;;5032110;28;20144;-71
2022/08/16 08:52:22;;;;;;;7.20;5.90;;;26.90;58.40;;;;;;5033392;28;20060;-72
2022/08/16 08:54:49;;;;;;;6.78;5.50;;;26.70;59.80;;;;;;5033044;28;20064;-72
2022/08/16 08:57:17;;;;;;;6.50;5.90;;;26.70;58.50;;;;;;5032529;28;20403;-72
2022/08/16 08:59:45;;;;;;;6.75;6.03;;;26.80;58.60;;;;;;5033484;28;20136;-73
2022/08/16 09:02:11;;;;;;;7.25;5.65;;;26.70;58.50;;;;;;5033514;28;20477;-72
2022/08/16 09:04:38;;;;;;;8.55;6.05;;;26.70;58.50;;;;;;5033326;28;20410;-71
2022/08/16 09:07:06;;;;;;;8.63;5.85;;;26.70;58.50;;;;;;5032686;28;20472;-71
2022/08/16 09:09:33;;;;;;;7.90;5.38;;;26.80;60.70;;;;;;5031875;28;20057;-73
2022/08/16 09:12:01;;;;;;;7.38;5.28;;;26.90;61.30;;;;;;5028988;28;20136;-71
2022/08/16 09:14:28;;;;;;;5.95;5.35;;;26.80;58.50;;;;;;5030871;28;20479;-75
2022/08/16 09:16:55;;;;;;;6.00;5.15;;;26.80;58.40;;;;;;5028596;28;20099;-74
2022/08/16 09:19:22;;;;;;;5.95;5.28;;;26.80;58.40;;;;;;5031231;28;20063;-75
2022/08/16 09:21:49;;;;;;;6.35;5.35;;;26.80;58.40;;;;;;5032083;28;20132;-75
2022/08/16 09:24:17;;;;;;;5.30;4.65;;;26.70;60.00;;;;;;5030288;28;20518;-75
2022/08/16 09:26:44;;;;;;;6.30;5.15;;;26.60;60.80;;;;;;5032894;28;20064;-75
2022/08/16 09:29:11;;;;;;;6.90;4.93;;;26.80;58.40;;;;;;5032053;28;20129;-72
2022/08/16 09:31:38;;;;;;;5.70;5.20;;;26.90;58.40;;;;;;5033097;28;20050;-72
2022/08/16 09:34:04;;;;;;;5.50;4.93;;;26.90;58.40;;;;;;5032143;28;20122;-73
2022/08/16 09:36:31;;;;;;;5.75;4.63;;;27.00;58.40;;;;;;5031579;28;20509;-73
2022/08/16 09:38:58;;;;;;;5.95;4.65;;;26.90;58.40;;;;;;5032866;28;20052;-72
2022/08/16 09:41:26;;;;;;;5.20;4.70;;;26.90;58.40;;;;;;5031570;28;20053;-73
2022/08/16 09:43:53;;;;;;;5.13;4.32;;;26.90;58.40;;;;;;5032919;28;20148;-73
2022/08/16 09:46:22;;;;;;;5.72;4.40;;;26.90;58.40;;;;;;5031975;28;20500;-75
2022/08/16 09:48:51;;;;;;;5.78;4.78;;;26.90;58.40;;;;;;5031951;28;20132;-75
2022/08/16 09:51:18;;;;;;;5.30;4.80;;;26.90;58.40;;;;;;5031487;28;20057;-74
2022/08/16 09:53:46;;;;;;;5.53;4.78;;;26.90;58.30;;;;;;5032875;28;20045;-75
2022/08/16 09:56:18;;;;;;;4.95;4.38;;;26.90;58.30;;;;;;5030538;28;20053;-74
2022/08/16 09:58:46;;;;;;;5.03;4.47;;;26.90;58.40;;;;;;5031726;28;20493;-75
2022/08/16 10:01:13;;;;;;;5.95;4.70;;;26.90;58.40;;;;;;5031243;28;20147;-75
2022/08/16 10:03:40;;;;;;;5.18;4.65;;;26.90;58.30;;;;;;5031609;28;20065;-75
2022/08/16 10:06:06;;;;;;;5.30;4.80;;;26.90;58.30;;;;;;5031928;28;20083;-72
2022/08/16 10:08:33;;;;;;;4.68;4.28;;;27.00;58.40;;;;;;5031544;28;20429;-72
2022/08/16 10:13:45;;;;;;;5.05;4.55;;;26.90;58.30;;;;;;5031559;28;20057;-72
2022/08/16 10:16:13;;;;;;;5.25;4.75;;;27.00;58.40;;;;;;5031096;28;20120;-72
2022/08/16 10:18:40;;;;;;;5.05;4.50;;;27.00;58.30;;;;;;5031277;28;20064;-72
2022/08/16 10:21:08;;;;;;;4.70;4.22;;;27.00;58.30;;;;;;5031233;28;20053;-72
2022/08/16 10:23:35;;;;;;;5.13;4.63;;;27.00;58.30;;;;;;5031144;28;20180;-72
2022/08/16 10:26:02;;;;;;;4.90;4.40;;;27.10;60.20;;;;;;5030839;28;20409;-72
2022/08/16 10:28:29;;;;;;;4.82;4.35;;;27.00;58.30;;;;;;5030977;28;20049;-72
2022/08/16 10:30:58;;;;;;;6.75;4.50;;;28.20;60.70;;;;;;5030734;28;20053;-72
2022/08/16 10:33:25;;;;;;;4.90;4.20;;;27.00;58.30;;;;;;5031335;28;20128;-72
2022/08/16 10:35:52;;;;;;;4.68;4.13;;;27.00;58.20;;;;;;5032063;28;20045;-72
2022/08/16 10:38:19;;;;;;;4.90;4.50;;;27.00;58.20;;;;;;5032031;28;20056;-72
2022/08/16 10:40:46;;;;;;;4.70;4.30;;;27.00;58.20;;;;;;5031428;28;20053;-75
2022/08/16 10:43:13;;;;;;;5.18;4.60;;;26.90;60.40;;;;;;5031067;28;20479;-73
2022/08/16 10:45:40;;;;;;;5.03;4.38;;;27.00;58.20;;;;;;5030908;28;20049;-73
2022/08/16 10:48:11;;;;;;;5.25;4.55;;;27.00;58.20;;;;;;5030802;28;20060;-72
2022/08/16 10:50:38;;;;;;;7.43;4.50;;;27.00;58.20;;;;;;5030711;28;20053;-72
2022/08/16 10:53:05;;;;;;;5.82;4.40;;;27.00;58.20;;;;;;5030750;28;20060;-73
2022/08/16 10:55:33;;;;;;;5.13;4.55;;;27.00;58.20;;;;;;5030130;28;20391;-72
2022/08/16 10:58:01;;;;;;;4.80;4.15;;;27.00;58.20;;;;;;5030762;28;20056;-73
2022/08/16 11:00:28;;;;;;;6.25;4.78;;;27.10;58.20;;;;;;5030346;28;20053;-73
2022/08/16 11:02:55;;;;;;;5.85;4.55;;;27.10;58.30;;;;;;5030856;28;20487;-73
2022/08/16 11:05:23;;;;;;;4.53;4.05;;;27.10;58.20;;;;;;5030716;28;20081;-73
2022/08/16 11:07:50;;;;;;;5.90;4.55;;;27.10;58.20;;;;;;5031461;28;20051;-73
2022/08/16 11:10:18;;;;;;;4.47;4.10;;;27.10;58.20;;;;;;5031053;28;20050;-73
2022/08/16 11:12:44;;;;;;;5.43;4.45;;;27.10;58.20;;;;;;5011815;28;20120;-73
2022/08/16 11:15:11;;;;;;;5.88;4.18;;;27.00;59.70;;;;;;5010900;28;20050;-73
2022/08/16 11:17:38;;;;;;;4.85;4.45;;;27.10;58.10;;;;;;5010855;28;20054;-75
2022/08/16 11:20:07;;;;;;;4.47;4.07;;;27.10;58.20;;;;;;5039258;28;20088;-76
2022/08/16 11:22:36;;;;;;;5.03;4.53;;;27.50;58.50;;;;;;5030197;28;20049;-74
2022/08/16 11:25:02;;;;;;;5.50;4.05;;;27.10;58.10;;;;;;5031634;28;20490;-73
2022/08/16 11:27:29;;;;;;;6.65;4.05;;;27.10;58.20;;;;;;5031672;28;20148;-73
2022/08/16 11:29:56;;;;;;;4.35;3.95;;;27.10;58.10;;;;;;5030180;28;20144;-73
2022/08/16 11:32:23;;;;;;;4.72;4.32;;;27.20;58.10;;;;;;5030773;28;20052;-73
2022/08/16 11:34:51;;;;;;;4.82;4.30;;;27.20;58.10;;;;;;5029074;28;20053;-73
2022/08/16 11:37:18;;;;;;;8.40;5.13;;;27.20;59.20;;;;;;5028202;28;20124;-72
2022/08/16 11:39:46;;;;;;;6.25;4.20;;;27.10;58.10;;;;;;5028912;28;20053;-74
2022/08/16 11:42:14;;;;;;;5.38;4.20;;;27.10;58.10;;;;;;5033506;28;20081;-73
2022/08/16 11:44:40;;;;;;;4.65;4.07;;;27.20;60.00;;;;;;5028500;28;20045;-72
2022/08/16 11:47:08;;;;;;;5.55;3.95;;;27.10;58.10;;;;;;5027807;28;20127;-72
2022/08/16 11:49:34;;;;;;;7.25;4.35;;;27.10;58.10;;;;;;5029058;28;20054;-76
2022/08/16 11:52:01;;;;;;;4.82;4.05;;;27.10;58.10;;;;;;5029964;28;20128;-76
2022/08/16 11:54:28;;;;;;;5.47;4.28;;;27.10;58.10;;;;;;5030329;28;20053;-75
2022/08/16 11:56:56;;;;;;;4.43;3.78;;;27.10;58.10;;;;;;5046699;28;20045;-75
2022/08/16 11:59:23;;;;;;;4.63;4.22;;;27.10;58.10;;;;;;5048210;28;20078;-75
2022/08/16 12:01:49;;;;;;;4.38;3.95;;;27.10;58.10;;;;;;5052155;28;20068;-75
2022/08/16 12:04:16;;;;;;;5.93;4.25;;;27.10;58.10;;;;;;5053118;28;20063;-75
2022/08/16 12:06:43;;;;;;;5.10;3.85;;;27.00;59.50;;;;;;5053036;28;20052;-75
2022/08/16 12:09:09;;;;;;;7.78;4.05;;;27.10;58.00;;;;;;5054277;28;20124;-75
2022/08/16 12:11:36;;;;;;;5.50;3.72;;;27.20;58.10;;;;;;5047936;28;20586;-75
2022/08/16 12:14:05;;;;;;;4.70;3.67;;;27.20;58.70;;;;;;5033649;28;20418;-75
2022/08/16 12:16:32;;;;;;;4.10;3.70;;;27.20;58.10;;;;;;5033496;28;20461;-75
2022/08/16 12:18:58;;;;;;;4.20;3.80;;;27.20;58.10;;;;;;5033501;28;20064;-75
2022/08/16 12:21:25;;;;;;;4.20;3.80;;;27.20;58.00;;;;;;5033648;28;20136;-75
2022/08/16 12:23:52;;;;;;;5.28;4.05;;;27.20;58.00;;;;;;5033720;28;20144;-75
2022/08/16 12:26:18;;;;;;;4.40;4.00;;;27.20;58.00;;;;;;5038441;28;20045;-75
2022/08/16 12:28:45;;;;;;;4.07;3.67;;;27.20;58.00;;;;;;5053204;28;20140;-73
2022/08/16 12:31:13;;;;;;;4.35;3.95;;;27.20;58.60;;;;;;5053285;28;20059;-74
2022/08/16 12:33:42;;;;;;;4.13;3.72;;;27.30;58.00;;;;;;5053059;28;20421;-73
2022/08/16 12:36:09;;;;;;;4.82;3.80;;;27.20;58.00;;;;;;5053157;28;20057;-72
2022/08/16 12:38:36;;;;;;;3.92;3.55;;;27.30;58.10;;;;;;5069910;28;20139;-74
2022/08/16 12:41:03;;;;;;;4.18;3.78;;;27.30;58.00;;;;;;5052579;28;20132;-73
2022/08/16 12:43:30;;;;;;;3.72;3.42;;;27.30;58.00;;;;;;5053324;28;20557;-73
2022/08/16 12:45:58;;;;;;;3.97;3.58;;;27.20;58.00;;;;;;5053152;28;20049;-73
2022/08/16 12:51:13;;;;;;;3.75;3.30;;;27.30;58.00;;;;;;5052724;28;20060;-72
2022/08/16 12:53:39;;;;;;;3.85;3.55;;;27.30;58.00;;;;;;5053038;28;20143;-72